Time;durP1;ratioP1;P1;durP2;ratioP2;P2;SDS_P1;SDS_P2;PMS_P1;PMS_P2;Temp;Humidity;BMP_temperature;BMP_pressure;BME280_temperature;BME280_humidity;BME280_pressure;Samples;Min_cycle;Max_cycle;Signal;HPM_P1;HPM_P2
2022/03/02 00:02:00;;;;;;;34.90;27.65;;;24.20;85.20;;;;;;1815688;79;21171;-88
2022/03/02 00:04:31;;;;;;;35.68;27.73;;;24.20;84.70;;;;;;1818078;79;21697;-88
2022/03/02 00:07:02;;;;;;;36.85;28.83;;;24.20;84.90;;;;;;1813488;79;21690;-88
2022/03/02 00:09:33;;;;;;;39.58;29.87;;;24.20;85.30;;;;;;1819625;79;21163;-88
2022/03/02 00:12:04;;;;;;;42.00;28.62;;;24.20;85.50;;;;;;1818965;79;21718;-89
2022/03/02 00:14:34;;;;;;;36.55;29.67;;;24.20;85.40;;;;;;1816119;77;21200;-88
2022/03/02 00:17:05;;;;;;;40.90;31.68;;;24.20;85.30;;;;;;1810585;78;21112;-88
2022/03/02 00:19:37;;;;;;;39.30;27.95;;;24.20;85.30;;;;;;1813828;79;21284;-88
2022/03/02 00:22:10;;;;;;;34.98;27.50;;;24.20;85.20;;;;;;1814429;79;21073;-88
2022/03/02 00:24:41;;;;;;;38.08;30.50;;;24.20;85.30;;;;;;1819994;79;21654;-89
2022/03/02 00:27:11;;;;;;;38.90;29.27;;;24.20;85.20;;;;;;1816555;79;21164;-88
2022/03/02 00:29:43;;;;;;;34.83;26.73;;;24.20;86.40;;;;;;1819381;79;21143;-89
2022/03/02 00:32:13;;;;;;;33.15;26.57;;;24.20;85.10;;;;;;1819063;79;21191;-89
2022/03/02 00:34:44;;;;;;;33.02;26.85;;;24.20;84.80;;;;;;1819955;77;21218;-89
2022/03/02 00:37:15;;;;;;;34.35;26.87;;;24.20;84.80;;;;;;1819759;79;21139;-88
2022/03/02 00:39:47;;;;;;;33.10;24.23;;;24.30;84.90;;;;;;1813870;79;21865;-89
2022/03/02 00:42:18;;;;;;;30.68;22.60;;;24.20;84.40;;;;;;1818731;79;21220;-88
2022/03/02 00:44:49;;;;;;;28.38;22.05;;;24.30;84.40;;;;;;1816521;79;21159;-88
2022/03/02 00:47:20;;;;;;;33.83;21.93;;;24.30;84.10;;;;;;1811122;79;21078;-88
2022/03/02 00:50:03;;;;;;;28.90;21.05;;;24.30;84.20;;;;;;1819564;79;21152;-88
2022/03/02 00:52:42;;;;;;;29.95;20.57;;;24.30;84.00;;;;;;1813226;77;21139;-89
2022/03/02 00:55:13;;;;;;;21.60;17.80;;;24.40;83.60;;;;;;1819055;78;21205;-88
2022/03/02 00:57:45;;;;;;;25.17;19.12;;;24.30;83.50;;;;;;1823176;78;21139;-83
2022/03/02 01:00:17;;;;;;;23.65;18.65;;;24.40;83.60;;;;;;1817114;78;21243;-84
2022/03/02 01:02:47;;;;;;;24.35;18.27;;;24.40;83.50;;;;;;1780546;80;21165;-85
2022/03/02 01:05:18;;;;;;;18.42;15.48;;;24.40;83.00;;;;;;1815706;78;21150;-85
2022/03/02 01:07:49;;;;;;;18.32;15.88;;;24.50;82.70;;;;;;1826984;78;21123;-84
2022/03/02 01:10:20;;;;;;;19.12;15.83;;;24.50;82.70;;;;;;1825781;78;21147;-85
2022/03/02 01:12:52;;;;;;;20.52;15.65;;;24.50;82.40;;;;;;1819934;78;21147;-86
2022/03/02 01:15:23;;;;;;;20.35;16.37;;;24.50;82.50;;;;;;1793032;78;21132;-85
2022/03/02 01:17:53;;;;;;;20.82;14.65;;;24.50;82.60;;;;;;1810190;78;21175;-85
2022/03/02 01:20:24;;;;;;;19.05;15.13;;;24.60;82.30;;;;;;1821678;78;21260;-83
2022/03/02 01:22:55;;;;;;;20.70;13.95;;;24.70;82.00;;;;;;1828374;78;21595;-83
2022/03/02 01:25:26;;;;;;;25.40;14.43;;;24.70;81.90;;;;;;1819661;78;21171;-84
2022/03/02 01:27:57;;;;;;;17.73;14.03;;;24.80;81.60;;;;;;1776209;80;21232;-83
2022/03/02 01:30:28;;;;;;;19.48;14.60;;;24.80;81.60;;;;;;1814039;78;21131;-85
2022/03/02 01:32:58;;;;;;;19.25;14.55;;;24.80;81.70;;;;;;1813042;78;21167;-87
2022/03/02 01:35:29;;;;;;;18.42;14.30;;;24.90;81.40;;;;;;1817128;78;21195;-84
2022/03/02 01:38:00;;;;;;;23.60;14.38;;;24.90;81.10;;;;;;1823783;78;21250;-73
2022/03/02 01:40:31;;;;;;;22.80;14.18;;;24.90;81.10;;;;;;1824302;78;21178;-74
2022/03/02 01:43:01;;;;;;;20.32;14.70;;;25.00;81.10;;;;;;1823852;78;21749;-74
2022/03/02 01:45:32;;;;;;;21.35;14.78;;;25.10;81.10;;;;;;1821138;78;21516;-74
2022/03/02 01:48:04;;;;;;;21.97;14.75;;;25.10;81.00;;;;;;1824201;78;21701;-73
2022/03/02 01:50:35;;;;;;;21.77;15.45;;;25.20;80.60;;;;;;1826198;78;21203;-73
2022/03/02 01:53:06;;;;;;;17.80;14.18;;;25.20;80.50;;;;;;1814673;79;21163;-72
2022/03/02 01:55:38;;;;;;;18.23;13.53;;;25.30;80.80;;;;;;1777814;79;21658;-73
2022/03/02 01:58:09;;;;;;;22.22;13.90;;;25.40;80.10;;;;;;1776159;80;21171;-73
2022/03/02 02:00:40;;;;;;;18.15;12.73;;;25.40;79.70;;;;;;1752690;81;21172;-73
2022/03/02 02:03:16;;;;;;;16.77;12.85;;;25.50;79.80;;;;;;1779337;80;21564;-73
2022/03/02 02:05:44;;;;;;;16.00;11.68;;;25.50;79.60;;;;;;1813300;78;21188;-74
2022/03/02 02:08:15;;;;;;;17.42;13.88;;;25.50;79.10;;;;;;1810485;77;21151;-73
2022/03/02 02:10:46;;;;;;;17.85;12.40;;;25.50;79.10;;;;;;1806327;79;21638;-73
2022/03/02 02:13:17;;;;;;;16.95;12.65;;;25.60;79.10;;;;;;1808525;79;21192;-74
2022/03/02 02:15:47;;;;;;;17.52;12.23;;;25.60;79.00;;;;;;1813319;77;21214;-74
2022/03/02 02:18:19;;;;;;;14.95;11.48;;;25.70;78.90;;;;;;1811143;78;21603;-73
2022/03/02 02:20:50;;;;;;;16.10;11.18;;;25.70;78.70;;;;;;1815907;79;21828;-73
2022/03/02 02:23:21;;;;;;;14.05;12.07;;;25.80;78.60;;;;;;1815624;79;21248;-74
2022/03/02 02:25:51;;;;;;;14.58;11.78;;;25.80;78.60;;;;;;1815427;79;21129;-73
2022/03/02 02:28:24;;;;;;;14.38;11.60;;;25.90;78.70;;;;;;1811080;79;21179;-73
2022/03/02 02:30:57;;;;;;;14.55;11.30;;;25.90;78.30;;;;;;1810314;77;21278;-74
2022/03/02 02:33:29;;;;;;;16.32;11.53;;;26.00;78.20;;;;;;1810719;79;21191;-74
2022/03/02 02:36:00;;;;;;;16.42;11.73;;;26.10;77.90;;;;;;1811142;79;21191;-74
2022/03/02 02:38:31;;;;;;;13.75;9.95;;;26.20;78.30;;;;;;1814992;79;21738;-75
2022/03/02 02:41:02;;;;;;;20.02;12.60;;;26.20;78.10;;;;;;1779861;80;21143;-74
2022/03/02 02:43:32;;;;;;;15.08;11.68;;;26.30;77.90;;;;;;1780556;80;21267;-74
2022/03/02 02:46:03;;;;;;;16.48;10.45;;;26.30;77.90;;;;;;1777469;79;21180;-71
2022/03/02 02:48:34;;;;;;;12.25;9.93;;;26.40;77.20;;;;;;1806089;79;21146;-72
2022/03/02 02:51:06;;;;;;;14.20;9.73;;;26.50;77.10;;;;;;1810216;79;22245;-73
2022/03/02 02:53:37;;;;;;;11.30;8.68;;;26.50;76.50;;;;;;1813213;79;21844;-72
2022/03/02 02:56:07;;;;;;;12.40;9.05;;;26.60;76.10;;;;;;1810126;77;21168;-73
2022/03/02 02:58:38;;;;;;;17.07;10.00;;;26.70;76.30;;;;;;1812483;79;21664;-74
2022/03/02 03:01:09;;;;;;;17.75;9.25;;;26.70;76.20;;;;;;1812826;78;21119;-73
2022/03/02 03:03:40;;;;;;;13.43;9.68;;;26.80;76.20;;;;;;1810773;79;21175;-74
2022/03/02 03:06:11;;;;;;;11.95;9.13;;;26.80;75.60;;;;;;1810936;79;21108;-74
2022/03/02 03:08:41;;;;;;;12.07;8.43;;;27.00;75.60;;;;;;1811890;79;21184;-73
2022/03/02 03:11:13;;;;;;;14.78;8.63;;;27.10;75.40;;;;;;1815042;79;21583;-74
2022/03/02 03:13:43;;;;;;;12.63;9.28;;;27.20;74.80;;;;;;1811435;79;21210;-73
2022/03/02 03:16:14;;;;;;;11.38;8.00;;;27.30;74.60;;;;;;1812275;77;21209;-73
2022/03/02 03:18:45;;;;;;;10.63;7.97;;;27.40;73.90;;;;;;1813934;79;21161;-74
2022/03/02 03:21:15;;;;;;;9.75;7.40;;;27.50;73.70;;;;;;1814594;77;21116;-74
2022/03/02 03:23:46;;;;;;;10.45;7.53;;;27.60;74.10;;;;;;1818012;79;21250;-73
2022/03/02 03:26:23;;;;;;;12.13;8.45;;;27.70;72.90;;;;;;1809718;79;21139;-72
2022/03/02 03:28:53;;;;;;;;;;;27.80;72.10;;;;;;1812881;79;21167;-74
2022/03/02 03:31:23;;;;;;;12.05;7.92;;;27.90;72.80;;;;;;1808217;79;20273;-74
2022/03/02 03:33:54;;;;;;;9.95;7.35;;;28.00;72.20;;;;;;1812191;79;21530;-73
2022/03/02 03:36:25;;;;;;;10.40;7.70;;;28.10;71.70;;;;;;1816391;79;21249;-74
2022/03/02 03:38:55;;;;;;;11.20;7.25;;;28.20;71.80;;;;;;1803174;79;22167;-74
2022/03/02 03:41:26;;;;;;;12.95;8.80;;;28.30;71.50;;;;;;1805605;79;21566;-73
2022/03/02 03:43:57;;;;;;;11.65;8.50;;;28.50;70.70;;;;;;1816283;79;21682;-73
2022/03/02 03:46:28;;;;;;;10.08;7.70;;;28.50;70.90;;;;;;1808896;79;21319;-73
2022/03/02 03:48:59;;;;;;;9.20;7.75;;;28.60;70.50;;;;;;1813943;79;21159;-72
2022/03/02 03:51:30;;;;;;;9.25;6.92;;;28.70;69.50;;;;;;1814621;79;21092;-73
2022/03/02 03:54:01;;;;;;;11.90;7.00;;;28.70;69.00;;;;;;1815032;77;21197;-70
2022/03/02 03:56:32;;;;;;;11.48;7.97;;;28.80;69.20;;;;;;1836898;77;21705;-74
2022/03/02 03:59:03;;;;;;;11.78;7.92;;;28.90;68.40;;;;;;1819770;78;21741;-73
2022/03/02 04:01:35;;;;;;;9.30;7.40;;;29.00;68.50;;;;;;1828901;78;21121;-74
2022/03/02 04:04:06;;;;;;;11.45;7.30;;;29.00;68.40;;;;;;1823482;78;21218;-72
2022/03/02 04:06:37;;;;;;;12.82;7.70;;;29.10;68.50;;;;;;1820597;78;21571;-74
2022/03/02 04:09:08;;;;;;;9.70;7.78;;;29.20;68.20;;;;;;1823385;77;21520;-73
2022/03/02 04:11:39;;;;;;;10.00;7.25;;;29.20;68.00;;;;;;1820046;78;21139;-73
2022/03/02 04:14:10;;;;;;;8.90;7.25;;;29.30;68.00;;;;;;1816980;78;21087;-73
2022/03/02 04:16:41;;;;;;;10.13;7.47;;;29.50;67.40;;;;;;1824458;78;21250;-74
2022/03/02 04:19:12;;;;;;;10.70;7.58;;;29.50;66.70;;;;;;1819668;78;21207;-74
2022/03/02 04:21:43;;;;;;;10.10;7.87;;;29.60;66.30;;;;;;1815858;78;21245;-74
2022/03/02 04:24:14;;;;;;;10.53;7.55;;;29.70;66.00;;;;;;1823240;77;21231;-72
2022/03/02 04:26:45;;;;;;;10.58;7.60;;;29.80;65.40;;;;;;1817860;78;21188;-73
2022/03/02 04:29:15;;;;;;;9.65;7.58;;;29.80;65.10;;;;;;1791097;80;21526;-73
2022/03/02 04:31:46;;;;;;;10.82;7.75;;;29.90;64.80;;;;;;1828961;78;22054;-73
2022/03/02 04:34:17;;;;;;;10.28;7.28;;;29.90;64.90;;;;;;1825616;78;21535;-75
2022/03/02 04:36:48;;;;;;;9.78;7.30;;;29.90;64.80;;;;;;1826144;77;21914;-74
2022/03/02 04:39:19;;;;;;;10.32;7.05;;;30.00;65.00;;;;;;1822964;78;21119;-73
2022/03/02 04:41:50;;;;;;;10.15;7.65;;;30.10;64.20;;;;;;1822994;77;21230;-72
2022/03/02 04:44:21;;;;;;;9.15;7.33;;;30.20;64.40;;;;;;1825803;78;21628;-75
2022/03/02 04:46:52;;;;;;;8.98;7.22;;;30.30;62.80;;;;;;1818898;78;21171;-73
2022/03/02 04:49:23;;;;;;;12.10;7.60;;;30.40;63.20;;;;;;1829247;78;21222;-74
2022/03/02 04:51:53;;;;;;;10.43;7.47;;;30.40;62.80;;;;;;1820800;78;21190;-74
2022/03/02 04:56:56;;;;;;;9.93;7.83;;;30.50;63.30;;;;;;1820219;78;21675;-73
2022/03/02 04:59:27;;;;;;;9.08;7.08;;;30.50;62.40;;;;;;1817348;77;21672;-73
2022/03/02 05:01:58;;;;;;;9.08;6.78;;;30.60;62.50;;;;;;1816487;79;21139;-73
2022/03/02 05:04:30;;;;;;;8.58;6.70;;;30.60;61.80;;;;;;1815857;78;21654;-73
2022/03/02 05:07:01;;;;;;;9.08;7.42;;;30.60;61.60;;;;;;1818859;79;21159;-73
2022/03/02 05:09:31;;;;;;;9.78;6.70;;;30.60;61.50;;;;;;1814596;79;21809;-73
2022/03/02 05:12:03;;;;;;;13.05;7.33;;;30.60;62.50;;;;;;1819354;79;21647;-73
2022/03/02 05:14:34;;;;;;;10.20;7.70;;;30.70;61.80;;;;;;1818601;77;21175;-73
2022/03/02 05:17:05;;;;;;;9.93;7.90;;;30.80;61.90;;;;;;1810422;79;21730;-72
2022/03/02 05:19:36;;;;;;;12.05;7.90;;;30.80;61.40;;;;;;1818202;79;22291;-73
2022/03/02 05:22:07;;;;;;;9.63;7.35;;;30.90;60.90;;;;;;1813226;79;21575;-73
2022/03/02 05:24:39;;;;;;;9.35;7.95;;;30.90;61.30;;;;;;1809942;79;21143;-73
2022/03/02 05:27:10;;;;;;;8.78;6.97;;;31.00;60.90;;;;;;1809901;79;21610;-73
2022/03/02 05:29:42;;;;;;;9.20;7.40;;;31.00;60.30;;;;;;1817052;79;21254;-73
2022/03/02 05:32:13;;;;;;;9.45;8.23;;;31.10;60.50;;;;;;1808706;77;21228;-74
2022/03/02 05:34:44;;;;;;;9.40;7.60;;;31.20;59.30;;;;;;1817307;79;21155;-74
2022/03/02 05:37:16;;;;;;;9.78;6.90;;;31.20;59.40;;;;;;1817121;79;21175;-72
2022/03/02 05:39:48;;;;;;;10.88;7.80;;;31.30;59.60;;;;;;1808160;79;21174;-73
2022/03/02 05:42:19;;;;;;;10.95;7.90;;;31.40;59.50;;;;;;1818444;79;21606;-72
2022/03/02 05:44:51;;;;;;;10.68;8.20;;;31.40;59.80;;;;;;1807801;77;21538;-72
2022/03/02 05:47:21;;;;;;;11.12;8.23;;;31.40;58.50;;;;;;1817308;79;21180;-73
2022/03/02 05:49:52;;;;;;;15.35;9.65;;;31.50;59.10;;;;;;1815977;79;21463;-72
2022/03/02 05:52:24;;;;;;;9.63;8.43;;;31.60;58.40;;;;;;1818447;79;21192;-72
2022/03/02 05:54:55;;;;;;;11.00;8.93;;;31.60;58.40;;;;;;1814245;79;21290;-73
2022/03/02 05:57:26;;;;;;;11.70;9.03;;;31.70;57.80;;;;;;1766183;80;21279;-73
2022/03/02 05:59:56;;;;;;;14.78;10.03;;;31.80;57.40;;;;;;1783589;80;21710;-73
2022/03/02 06:02:27;;;;;;;10.23;9.13;;;31.90;57.30;;;;;;1817112;77;21175;-73
2022/03/02 06:04:59;;;;;;;10.55;8.83;;;31.90;56.80;;;;;;1818854;79;21128;-72
2022/03/02 06:07:29;;;;;;;15.80;9.10;;;31.90;56.90;;;;;;1804806;79;21146;-72
2022/03/02 06:10:00;;;;;;;12.80;9.00;;;31.90;57.90;;;;;;1814031;79;21205;-73
2022/03/02 06:12:31;;;;;;;15.13;8.90;;;31.90;57.10;;;;;;1817063;79;21590;-73
2022/03/02 06:15:04;;;;;;;13.48;9.63;;;32.00;57.90;;;;;;1817876;79;21428;-73
2022/03/02 06:17:35;;;;;;;9.53;7.85;;;32.00;58.20;;;;;;1818708;79;21215;-75
2022/03/02 06:20:07;;;;;;;13.78;8.85;;;32.00;58.30;;;;;;1813736;79;21599;-74
2022/03/02 06:22:38;;;;;;;12.85;8.80;;;32.10;57.80;;;;;;1816066;79;21124;-74
2022/03/02 06:25:09;;;;;;;14.03;8.50;;;32.10;57.50;;;;;;1814914;79;21197;-74
2022/03/02 06:27:40;;;;;;;10.60;9.28;;;32.00;57.50;;;;;;1816773;79;21604;-74
2022/03/02 06:30:12;;;;;;;12.23;9.30;;;32.00;57.60;;;;;;1818624;79;21207;-74
2022/03/02 06:32:43;;;;;;;13.08;9.78;;;32.00;58.00;;;;;;1818774;79;21129;-73
2022/03/02 06:35:14;;;;;;;12.07;9.43;;;32.10;57.60;;;;;;1817734;79;21219;-73
2022/03/02 06:37:46;;;;;;;12.10;8.78;;;32.20;57.50;;;;;;1812459;79;21144;-72
2022/03/02 06:40:17;;;;;;;12.73;9.00;;;32.20;57.90;;;;;;1815107;79;21176;-74
2022/03/02 06:42:48;;;;;;;11.22;9.20;;;32.20;57.40;;;;;;1815610;79;22488;-74
2022/03/02 06:45:22;;;;;;;12.10;9.60;;;32.20;56.60;;;;;;1814389;78;21645;-73
2022/03/02 06:47:55;;;;;;;13.10;9.43;;;32.20;57.20;;;;;;1815542;79;21278;-73
2022/03/02 06:50:29;;;;;;;14.53;10.03;;;32.20;57.20;;;;;;1816205;78;21313;-72
2022/03/02 06:53:02;;;;;;;11.57;8.88;;;32.20;57.70;;;;;;1811301;79;21642;-73
2022/03/02 06:55:33;;;;;;;12.30;9.13;;;32.20;56.50;;;;;;1808958;79;21210;-71
2022/03/02 06:58:07;;;;;;;17.82;9.93;;;32.20;57.00;;;;;;1822002;78;21596;-73
2022/03/02 07:00:39;;;;;;;11.57;9.40;;;32.20;56.10;;;;;;1811981;79;21706;-72
2022/03/02 07:03:14;;;;;;;12.35;9.43;;;32.30;56.40;;;;;;1833091;78;21151;-73
2022/03/02 07:05:44;;;;;;;11.15;9.38;;;32.40;56.20;;;;;;1810979;79;21155;-72
2022/03/02 07:08:17;;;;;;;11.88;9.65;;;32.50;55.80;;;;;;1837457;78;21168;-73
2022/03/02 07:10:50;;;;;;;10.93;9.78;;;32.50;55.90;;;;;;1809116;79;21601;-73
2022/03/02 07:13:23;;;;;;;13.05;10.53;;;32.50;55.20;;;;;;1834367;78;21221;-72
2022/03/02 07:15:54;;;;;;;13.38;10.08;;;32.50;54.30;;;;;;1810382;79;21089;-72
2022/03/02 07:18:25;;;;;;;15.32;9.50;;;32.50;54.20;;;;;;1836965;78;21101;-73
2022/03/02 07:20:58;;;;;;;10.78;9.60;;;32.50;54.50;;;;;;1763028;81;21239;-72
2022/03/02 07:23:31;;;;;;;14.38;10.40;;;32.40;54.90;;;;;;1836591;78;21120;-73
2022/03/02 07:26:03;;;;;;;13.28;9.40;;;32.40;55.30;;;;;;1816359;79;21235;-73
2022/03/02 07:28:36;;;;;;;11.95;9.80;;;32.40;55.10;;;;;;1838667;78;21174;-72
2022/03/02 07:31:08;;;;;;;10.55;9.28;;;32.40;55.50;;;;;;1816918;79;21861;-73
2022/03/02 07:33:42;;;;;;;13.55;9.80;;;32.40;56.20;;;;;;1839241;78;21175;-71
2022/03/02 07:36:13;;;;;;;15.55;10.63;;;32.40;55.50;;;;;;1815417;79;21056;-72
2022/03/02 07:38:43;;;;;;;12.85;10.10;;;32.40;56.10;;;;;;1816267;79;21089;-72
2022/03/02 07:41:15;;;;;;;13.62;10.32;;;32.30;55.60;;;;;;1839767;78;21195;-73
2022/03/02 07:43:47;;;;;;;13.30;9.95;;;32.30;55.50;;;;;;1815941;79;21202;-74
2022/03/02 07:46:18;;;;;;;16.17;10.15;;;32.30;55.50;;;;;;1832457;78;21144;-70
2022/03/02 07:48:49;;;;;;;14.38;9.78;;;32.20;55.40;;;;;;1809731;79;21144;-71
2022/03/02 07:51:20;;;;;;;12.25;9.28;;;32.20;56.10;;;;;;1839485;78;21199;-73
2022/03/02 07:53:52;;;;;;;12.78;9.18;;;32.20;55.50;;;;;;1813479;79;21175;-74
2022/03/02 07:56:24;;;;;;;14.05;10.23;;;32.10;55.20;;;;;;1839120;78;21446;-73
2022/03/02 07:58:56;;;;;;;12.15;10.28;;;32.10;55.50;;;;;;1812837;78;21335;-74
2022/03/02 08:01:27;;;;;;;13.65;10.03;;;32.00;55.60;;;;;;1818185;79;21255;-74
2022/03/02 08:03:59;;;;;;;13.40;10.75;;;32.10;55.80;;;;;;1820544;79;21111;-74
2022/03/02 08:06:31;;;;;;;17.82;11.80;;;32.00;56.00;;;;;;1817706;79;21152;-75
2022/03/02 08:09:04;;;;;;;13.65;11.35;;;31.90;55.70;;;;;;1816984;79;21275;-72
2022/03/02 08:11:40;;;;;;;15.58;10.20;;;31.90;55.80;;;;;;1818721;79;21758;-74
2022/03/02 08:14:09;;;;;;;14.58;10.72;;;31.90;55.90;;;;;;1818456;79;21159;-74
2022/03/02 08:16:43;;;;;;;13.62;10.35;;;31.90;55.80;;;;;;1817761;79;21093;-74
2022/03/02 08:19:13;;;;;;;14.68;11.03;;;31.90;55.80;;;;;;1819038;79;21196;-73
2022/03/02 08:21:45;;;;;;;12.65;10.98;;;32.00;55.90;;;;;;1816941;79;21641;-74
2022/03/02 08:24:17;;;;;;;11.78;10.43;;;32.00;56.50;;;;;;1818844;79;21132;-73
2022/03/02 08:26:52;;;;;;;14.93;11.18;;;32.00;56.20;;;;;;1818711;79;21630;-73
2022/03/02 08:29:23;;;;;;;16.45;11.78;;;32.00;55.90;;;;;;1814560;79;21235;-72
2022/03/02 08:31:57;;;;;;;12.68;10.35;;;32.00;55.80;;;;;;1818087;79;21163;-74
2022/03/02 08:34:30;;;;;;;16.20;10.85;;;32.00;55.80;;;;;;1818341;79;21380;-72
2022/03/02 08:37:02;;;;;;;10.85;9.85;;;32.00;55.90;;;;;;1818656;77;21188;-71
2022/03/02 08:39:33;;;;;;;15.00;12.37;;;32.00;55.70;;;;;;1817259;77;21619;-72
2022/03/02 08:42:04;;;;;;;13.93;10.93;;;31.90;55.30;;;;;;1817626;79;21160;-72
2022/03/02 08:44:35;;;;;;;18.17;11.08;;;31.90;55.30;;;;;;1806681;79;21226;-72
2022/03/02 08:47:09;;;;;;;21.87;12.73;;;31.90;55.30;;;;;;1816205;79;21190;-73
2022/03/02 08:49:40;;;;;;;16.07;11.57;;;31.90;55.20;;;;;;1816581;77;21608;-73
2022/03/02 08:52:12;;;;;;;14.63;10.88;;;31.90;55.10;;;;;;1818446;79;21217;-73
2022/03/02 08:54:45;;;;;;;13.98;12.45;;;31.90;54.80;;;;;;1811416;79;21135;-73
2022/03/02 08:57:18;;;;;;;13.95;12.50;;;31.90;55.30;;;;;;1812227;79;21227;-74
2022/03/02 08:59:52;;;;;;;14.78;12.63;;;31.90;54.20;;;;;;1821112;77;21601;-73
2022/03/02 09:02:27;;;;;;;14.10;12.70;;;32.00;54.40;;;;;;1826257;78;21748;-73
2022/03/02 09:04:59;;;;;;;16.48;14.05;;;32.00;53.40;;;;;;1826626;78;21706;-73
2022/03/02 09:07:30;;;;;;;18.82;15.80;;;31.90;53.40;;;;;;1823596;78;21212;-73
2022/03/02 09:10:02;;;;;;;16.37;13.53;;;31.90;52.70;;;;;;1813606;79;21089;-73
2022/03/02 09:12:32;;;;;;;16.35;13.28;;;31.90;53.00;;;;;;1823604;78;21195;-73
2022/03/02 09:15:04;;;;;;;14.73;13.13;;;31.90;52.50;;;;;;1824594;78;21125;-72
2022/03/02 09:17:35;;;;;;;17.45;14.45;;;31.90;52.50;;;;;;1825033;78;21080;-72
2022/03/02 09:20:09;;;;;;;14.28;12.85;;;31.80;52.80;;;;;;1825046;77;22288;-72
2022/03/02 09:22:41;;;;;;;15.63;12.68;;;31.80;52.90;;;;;;1825191;78;21246;-71
2022/03/02 09:25:12;;;;;;;17.15;13.03;;;31.80;54.10;;;;;;1818448;78;21231;-72
2022/03/02 09:27:44;;;;;;;16.75;12.43;;;31.80;53.50;;;;;;1820420;78;21653;-73
2022/03/02 09:30:15;;;;;;;16.57;12.30;;;31.70;54.00;;;;;;1824565;78;21682;-74
2022/03/02 09:32:46;;;;;;;17.23;12.70;;;31.70;54.70;;;;;;1824035;78;21143;-73
2022/03/02 09:35:17;;;;;;;18.23;12.70;;;31.60;54.70;;;;;;1819489;78;21084;-72
2022/03/02 09:37:49;;;;;;;14.93;13.05;;;31.60;54.50;;;;;;1815922;78;21220;-72
2022/03/02 09:40:22;;;;;;;14.00;11.75;;;31.60;54.70;;;;;;1822183;78;21141;-72
2022/03/02 09:42:56;;;;;;;17.65;14.80;;;31.50;54.80;;;;;;1821254;78;21143;-73
2022/03/02 09:45:29;;;;;;;15.55;12.40;;;31.50;54.70;;;;;;1816071;78;21156;-73
2022/03/02 09:48:03;;;;;;;13.15;11.73;;;31.50;54.90;;;;;;1816282;78;21711;-72
2022/03/02 09:50:38;;;;;;;15.13;12.13;;;31.50;55.10;;;;;;1819737;78;21079;-73
2022/03/02 09:53:12;;;;;;;13.22;11.90;;;31.50;54.90;;;;;;1810571;78;21161;-72
2022/03/02 09:56:03;;;;;;;17.20;13.43;;;31.40;55.10;;;;;;1805643;78;21679;-73
2022/03/02 09:58:36;;;;;;;13.53;12.13;;;31.40;55.00;;;;;;1795739;80;21633;-72
2022/03/02 10:01:10;;;;;;;12.82;11.43;;;31.40;55.20;;;;;;1827679;78;21611;-72
2022/03/02 10:03:44;;;;;;;13.35;11.57;;;31.30;55.50;;;;;;1795943;78;21240;-72
2022/03/02 10:06:16;;;;;;;14.45;11.48;;;31.40;56.00;;;;;;1855424;76;21650;-72
2022/03/02 10:08:50;;;;;;;16.02;11.85;;;31.30;55.90;;;;;;1861679;77;21222;-72
2022/03/02 10:11:24;;;;;;;13.08;11.65;;;31.30;56.00;;;;;;1863586;76;21224;-72
2022/03/02 10:13:58;;;;;;;15.25;12.13;;;31.20;56.20;;;;;;1875982;76;21131;-72
2022/03/02 10:16:29;;;;;;;13.03;11.30;;;31.30;56.10;;;;;;1886497;76;21131;-71
2022/03/02 10:19:05;;;;;;;15.43;12.65;;;31.20;56.30;;;;;;1880969;76;21126;-72
2022/03/02 10:21:38;;;;;;;16.55;11.88;;;31.20;56.30;;;;;;1872678;76;21248;-73
2022/03/02 10:24:14;;;;;;;16.02;12.60;;;31.20;56.30;;;;;;1861907;76;21197;-72
2022/03/02 10:26:46;;;;;;;13.38;11.73;;;31.10;56.60;;;;;;1862321;77;21614;-73
2022/03/02 10:29:19;;;;;;;13.83;12.00;;;31.10;56.90;;;;;;1860753;77;21640;-71
2022/03/02 10:31:52;;;;;;;14.75;12.05;;;31.10;57.00;;;;;;1862444;77;21113;-72
2022/03/02 10:34:25;;;;;;;16.87;13.03;;;31.10;56.80;;;;;;1864290;76;21127;-71
2022/03/02 10:36:59;;;;;;;16.35;12.25;;;31.10;56.60;;;;;;1862559;77;21625;-72
2022/03/02 10:39:32;;;;;;;14.47;12.37;;;31.10;57.00;;;;;;1860184;76;21439;-71
2022/03/02 10:42:06;;;;;;;15.53;12.28;;;31.00;57.00;;;;;;1857662;76;21111;-71
2022/03/02 10:44:40;;;;;;;16.15;12.85;;;31.00;57.20;;;;;;1861703;77;21084;-72
2022/03/02 10:47:13;;;;;;;14.23;11.68;;;31.00;57.40;;;;;;1857581;77;21146;-72
2022/03/02 10:49:46;;;;;;;13.55;12.10;;;30.90;57.40;;;;;;1866080;76;21228;-71
2022/03/02 10:52:18;;;;;;;16.25;12.00;;;30.90;57.30;;;;;;1842170;76;21122;-72
2022/03/02 10:54:50;;;;;;;17.52;11.80;;;30.90;57.30;;;;;;1839567;77;21118;-71
2022/03/02 10:57:24;;;;;;;17.50;12.95;;;30.90;57.40;;;;;;1853688;76;21163;-73
2022/03/02 10:59:55;;;;;;;13.93;12.40;;;30.80;57.40;;;;;;1844887;77;21724;-71
2022/03/02 11:02:26;;;;;;;27.52;19.07;;;30.80;57.40;;;;;;1829792;77;21274;-71
2022/03/02 11:04:59;;;;;;;20.65;16.25;;;30.80;57.60;;;;;;1816173;78;21169;-70
2022/03/02 11:07:31;;;;;;;20.37;15.95;;;30.80;57.60;;;;;;1835471;77;21586;-71
2022/03/02 11:10:04;;;;;;;29.48;20.15;;;30.80;57.70;;;;;;1859055;77;21623;-72
2022/03/02 11:12:35;;;;;;;18.50;13.32;;;30.80;58.10;;;;;;1849278;77;21551;-71
2022/03/02 11:15:07;;;;;;;18.60;14.58;;;30.70;58.50;;;;;;1878092;76;21630;-71
2022/03/02 11:17:41;;;;;;;27.15;18.12;;;30.70;58.70;;;;;;1875405;76;21610;-72
2022/03/02 11:20:13;;;;;;;23.00;16.15;;;30.60;58.70;;;;;;1853917;77;21637;-71
2022/03/02 11:22:46;;;;;;;22.35;15.20;;;30.60;58.80;;;;;;1864235;76;21083;-71
2022/03/02 11:25:17;;;;;;;21.20;14.40;;;30.60;59.80;;;;;;1867165;76;21107;-72
2022/03/02 11:27:47;;;;;;;24.20;17.15;;;30.50;59.70;;;;;;1882568;76;21443;-73
2022/03/02 11:30:20;;;;;;;26.60;17.98;;;30.40;59.60;;;;;;1862651;77;21176;-83
2022/03/02 11:32:50;;;;;;;24.72;14.07;;;30.40;59.90;;;;;;1863983;76;21521;-84
2022/03/02 11:35:21;;;;;;;19.25;13.35;;;30.40;59.90;;;;;;1878879;76;21791;-84
2022/03/02 11:37:55;;;;;;;21.48;13.85;;;30.30;60.60;;;;;;1860840;77;21495;-83
2022/03/02 11:40:28;;;;;;;22.60;14.63;;;30.30;60.80;;;;;;1860740;77;21215;-85
2022/03/02 11:43:01;;;;;;;21.90;15.20;;;30.20;61.00;;;;;;1827301;77;21248;-83
2022/03/02 11:45:34;;;;;;;20.02;13.72;;;30.20;61.60;;;;;;1841789;77;21063;-84
2022/03/02 11:48:07;;;;;;;21.87;14.30;;;30.10;61.70;;;;;;1862762;77;21653;-83
2022/03/02 11:50:43;;;;;;;25.90;15.32;;;30.10;61.60;;;;;;1848589;77;21060;-83
2022/03/02 11:53:14;;;;;;;21.85;15.25;;;30.10;61.50;;;;;;1855907;76;21124;-82
2022/03/02 11:55:45;;;;;;;22.40;15.90;;;30.00;61.40;;;;;;1850767;76;21099;-84
2022/03/02 11:58:17;;;;;;;21.12;16.37;;;30.00;62.10;;;;;;1835547;77;21594;-83
2022/03/02 12:00:48;;;;;;;22.17;18.45;;;30.00;61.20;;;;;;1835249;76;21179;-83
2022/03/02 12:03:19;;;;;;;27.45;17.50;;;30.00;61.20;;;;;;1843741;77;21694;-82
2022/03/02 12:05:52;;;;;;;26.93;18.00;;;30.00;61.30;;;;;;1846901;77;21143;-85
2022/03/02 12:08:23;;;;;;;20.02;14.50;;;30.00;61.70;;;;;;1817913;78;21239;-85
2022/03/02 12:10:57;;;;;;;16.93;14.45;;;30.00;62.20;;;;;;1844542;76;21571;-83
2022/03/02 12:13:27;;;;;;;17.40;14.70;;;29.90;62.30;;;;;;1847125;78;21136;-83
2022/03/02 12:15:57;;;;;;;23.32;15.80;;;29.90;62.60;;;;;;1846490;78;21159;-85
2022/03/02 12:18:28;;;;;;;21.23;15.32;;;29.80;62.60;;;;;;1846215;78;21100;-82
2022/03/02 12:20:59;;;;;;;19.57;16.17;;;29.80;62.80;;;;;;1840222;78;21201;-83
2022/03/02 12:23:33;;;;;;;20.92;16.73;;;29.70;62.80;;;;;;1816585;79;21240;-83
2022/03/02 12:26:05;;;;;;;25.97;18.60;;;29.70;62.70;;;;;;1843167;77;21176;-84
2022/03/02 12:28:35;;;;;;;27.37;19.32;;;29.70;62.30;;;;;;1848017;77;21130;-83
2022/03/02 12:31:08;;;;;;;30.37;19.10;;;29.70;62.20;;;;;;1846977;78;21145;-84
2022/03/02 12:33:39;;;;;;;30.48;19.23;;;29.80;62.20;;;;;;1847053;77;21154;-83
2022/03/02 12:36:11;;;;;;;26.42;19.27;;;29.80;62.20;;;;;;1840524;76;21056;-82
2022/03/02 12:38:42;;;;;;;24.80;19.30;;;29.80;62.10;;;;;;1846672;78;21248;-82
2022/03/02 12:41:12;;;;;;;27.48;20.00;;;29.80;62.00;;;;;;1844577;77;22328;-83
2022/03/02 12:43:44;;;;;;;31.52;20.23;;;29.90;62.00;;;;;;1823253;76;21629;-82
2022/03/02 12:46:15;;;;;;;24.57;20.23;;;29.90;61.90;;;;;;1850885;76;21690;-83
2022/03/02 12:48:48;;;;;;;24.00;19.02;;;29.90;61.90;;;;;;1846195;77;21172;-82
2022/03/02 12:51:21;;;;;;;24.07;18.42;;;29.90;61.90;;;;;;1809919;78;21043;-82
2022/03/02 12:53:52;;;;;;;25.50;21.17;;;29.90;62.00;;;;;;1844231;78;21217;-83
2022/03/02 12:56:23;;;;;;;27.35;19.82;;;29.80;62.10;;;;;;1847451;76;21681;-83